Time;durP1;ratioP1;P1;durP2;ratioP2;P2;SDS_P1;SDS_P2;PMS_P1;PMS_P2;Temp;Humidity;BMP_temperature;BMP_pressure;BME280_temperature;BME280_humidity;BME280_pressure;Samples;Min_cycle;Max_cycle;Signal;HPM_P1;HPM_P2
2022/03/05 00:01:57;;;;;;;20.48;5.72;;;1.30;99.90;;;;;;5091827;28;20043;-74
2022/03/05 00:04:23;;;;;;;17.92;5.47;;;1.30;99.90;;;;;;5093190;28;20493;-74
2022/03/05 00:06:49;;;;;;;18.88;4.95;;;1.20;99.90;;;;;;5093074;28;20431;-74
2022/03/05 00:09:17;;;;;;;19.10;5.55;;;1.10;99.90;;;;;;5093430;28;20016;-74
2022/03/05 00:11:43;;;;;;;19.60;5.05;;;1.10;99.90;;;;;;5093580;28;20016;-74
2022/03/05 00:14:08;;;;;;;20.23;4.97;;;1.10;99.90;;;;;;5092488;28;20015;-74
2022/03/05 00:16:34;;;;;;;21.38;5.47;;;1.10;99.90;;;;;;5093562;28;20041;-74
2022/03/05 00:19:00;;;;;;;17.75;5.07;;;1.10;99.90;;;;;;5092792;28;20055;-74
2022/03/05 00:21:25;;;;;;;18.55;5.68;;;1.10;99.90;;;;;;5092100;28;20020;-74
2022/03/05 00:23:51;;;;;;;22.92;7.20;;;1.10;99.90;;;;;;5093634;28;20028;-74
2022/03/05 00:26:17;;;;;;;20.02;5.85;;;1.00;99.90;;;;;;5091965;28;20024;-74
2022/03/05 00:28:42;;;;;;;16.20;4.90;;;1.00;99.90;;;;;;5093257;28;20016;-74
2022/03/05 00:31:08;;;;;;;20.95;5.40;;;1.00;99.90;;;;;;5093630;28;20016;-76
2022/03/05 00:33:34;;;;;;;16.90;5.05;;;1.00;99.90;;;;;;5092952;28;20532;-74
2022/03/05 00:35:59;;;;;;;19.30;5.57;;;1.00;99.90;;;;;;5093373;28;20028;-74
2022/03/05 00:38:25;;;;;;;26.83;6.57;;;0.90;99.90;;;;;;5093817;28;20436;-74
2022/03/05 00:40:50;;;;;;;20.35;5.30;;;0.90;99.90;;;;;;5093390;28;20035;-74
2022/03/05 00:43:16;;;;;;;18.00;5.25;;;0.80;99.90;;;;;;5093218;28;20020;-74
2022/03/05 00:45:42;;;;;;;20.58;5.50;;;0.80;99.90;;;;;;5091694;28;20024;-74
2022/03/05 00:48:07;;;;;;;19.50;5.80;;;0.80;99.90;;;;;;5091635;28;20023;-74
2022/03/05 00:50:33;;;;;;;19.98;6.05;;;0.80;99.90;;;;;;5093312;28;20054;-74
2022/03/05 00:52:59;;;;;;;16.63;4.13;;;0.80;99.90;;;;;;5091849;28;20500;-75
2022/03/05 00:55:25;;;;;;;23.58;5.93;;;0.70;99.90;;;;;;5092926;28;20477;-74
2022/03/05 00:57:50;;;;;;;14.85;4.32;;;0.70;99.90;;;;;;5092661;28;20036;-74
2022/03/05 01:00:16;;;;;;;21.58;6.00;;;0.70;99.90;;;;;;5092910;28;20035;-75
2022/03/05 01:02:42;;;;;;;17.48;5.22;;;0.70;99.90;;;;;;5092067;28;20024;-74
2022/03/05 01:05:08;;;;;;;16.30;5.30;;;0.70;99.90;;;;;;5095124;28;20027;-74
2022/03/05 01:07:34;;;;;;;20.05;5.30;;;0.70;99.90;;;;;;5096641;28;20105;-74
2022/03/05 01:10:00;;;;;;;20.75;6.30;;;0.60;99.90;;;;;;5096444;28;20043;-74
2022/03/05 01:12:25;;;;;;;19.25;5.05;;;0.60;99.90;;;;;;5096750;28;20020;-74
2022/03/05 01:14:51;;;;;;;17.92;5.13;;;0.60;99.90;;;;;;5096201;28;20023;-74
2022/03/05 01:17:18;;;;;;;18.65;5.43;;;0.50;99.90;;;;;;5096340;28;20024;-75
2022/03/05 01:19:44;;;;;;;20.83;6.22;;;0.50;99.90;;;;;;5095264;28;20093;-74
2022/03/05 01:22:10;;;;;;;18.92;5.35;;;0.50;99.90;;;;;;5096489;28;20078;-74
2022/03/05 01:24:36;;;;;;;17.48;5.00;;;0.40;99.90;;;;;;5096519;28;20047;-74
2022/03/05 01:27:02;;;;;;;24.33;5.38;;;0.40;99.90;;;;;;5095817;28;20078;-74
2022/03/05 01:29:27;;;;;;;19.55;5.65;;;0.30;99.90;;;;;;5096322;28;20103;-74
2022/03/05 01:31:53;;;;;;;15.45;4.68;;;0.30;99.90;;;;;;5096439;28;20099;-74
2022/03/05 01:34:19;;;;;;;19.73;5.63;;;0.30;99.90;;;;;;5096703;28;20016;-75
2022/03/05 01:36:44;;;;;;;18.48;6.57;;;0.20;99.90;;;;;;5096307;28;20463;-74
2022/03/05 01:39:10;;;;;;;17.95;6.00;;;0.20;99.90;;;;;;5096437;28;20017;-74
2022/03/05 01:41:37;;;;;;;17.75;5.03;;;0.20;99.90;;;;;;5096197;28;20020;-74
2022/03/05 01:44:04;;;;;;;22.85;6.03;;;0.10;99.90;;;;;;5095727;28;20032;-73
2022/03/05 01:46:38;;;;;;;19.25;6.05;;;0.10;99.90;;;;;;5094628;28;20016;-74
2022/03/05 01:49:11;;;;;;;19.23;5.57;;;0.10;99.90;;;;;;5096351;28;20418;-74
2022/03/05 01:51:38;;;;;;;21.30;6.25;;;0.00;99.90;;;;;;5096019;28;20016;-74
2022/03/05 01:54:04;;;;;;;14.82;5.07;;;0.00;99.90;;;;;;5096128;28;20031;-73
2022/03/05 01:56:30;;;;;;;19.33;5.53;;;-0.10;99.90;;;;;;5096260;28;20086;-73
2022/03/05 01:58:56;;;;;;;20.08;5.05;;;-0.10;99.90;;;;;;5095123;28;20028;-75
2022/03/05 02:01:24;;;;;;;20.80;5.18;;;-0.10;99.90;;;;;;5094474;28;20020;-74
2022/03/05 02:03:51;;;;;;;24.45;5.82;;;-0.10;99.90;;;;;;5095396;28;20074;-74
2022/03/05 02:06:17;;;;;;;20.15;6.00;;;-0.10;99.90;;;;;;5094205;28;20039;-75
2022/03/05 02:08:42;;;;;;;17.92;5.38;;;-0.20;99.90;;;;;;5095597;28;20024;-74
2022/03/05 02:11:08;;;;;;;19.20;5.93;;;-0.20;99.90;;;;;;5093600;28;20389;-74
2022/03/05 02:13:33;;;;;;;21.92;5.82;;;-0.20;99.90;;;;;;5094638;28;20044;-74
2022/03/05 02:15:59;;;;;;;23.05;5.75;;;-0.30;99.90;;;;;;5095576;28;20024;-75
2022/03/05 02:18:25;;;;;;;19.50;6.30;;;-0.30;99.90;;;;;;5095141;28;20541;-74
2022/03/05 02:20:52;;;;;;;23.20;6.82;;;-0.30;99.90;;;;;;5095316;28;20031;-74
2022/03/05 02:23:17;;;;;;;25.65;5.85;;;-0.30;99.90;;;;;;5095297;28;20032;-74
2022/03/05 02:25:57;;;;;;;18.08;5.20;;;-0.40;99.90;;;;;;5094946;28;20047;-75
2022/03/05 02:28:24;;;;;;;19.15;5.82;;;-0.40;99.90;;;;;;5095307;28;20474;-74
2022/03/05 02:30:49;;;;;;;18.23;5.30;;;-0.50;99.90;;;;;;5094119;28;20020;-74
2022/03/05 02:33:15;;;;;;;17.75;5.53;;;-0.50;99.90;;;;;;5093950;28;20378;-74
2022/03/05 02:35:44;;;;;;;17.25;5.72;;;-0.50;99.90;;;;;;5093749;28;20034;-74
2022/03/05 02:38:14;;;;;;;21.65;5.72;;;-0.60;99.90;;;;;;5095016;28;20032;-74
2022/03/05 02:40:41;;;;;;;21.40;5.65;;;-0.60;99.90;;;;;;5094846;28;20032;-75
2022/03/05 02:43:08;;;;;;;25.00;7.10;;;-0.60;99.90;;;;;;5094829;28;20048;-75
2022/03/05 02:45:34;;;;;;;19.05;5.95;;;-0.70;99.90;;;;;;5094497;28;20020;-76
2022/03/05 02:48:06;;;;;;;19.17;5.45;;;-0.70;99.90;;;;;;5093850;28;20020;-74
2022/03/05 02:50:32;;;;;;;19.45;5.25;;;-0.70;99.90;;;;;;5094752;28;20024;-74
2022/03/05 02:52:58;;;;;;;22.25;6.03;;;-0.70;99.90;;;;;;5094761;28;20028;-73
2022/03/05 02:55:24;;;;;;;21.00;5.72;;;-0.70;99.90;;;;;;5094697;28;20024;-74
2022/03/05 02:57:49;;;;;;;24.52;6.35;;;-0.80;99.90;;;;;;5095535;28;20028;-74
2022/03/05 03:00:15;;;;;;;19.17;5.80;;;-0.80;99.90;;;;;;5094377;28;20473;-73
2022/03/05 03:02:41;;;;;;;18.48;5.18;;;-0.80;99.90;;;;;;5093270;28;20477;-74
2022/03/05 03:05:07;;;;;;;23.08;5.82;;;-0.90;99.90;;;;;;5094726;28;20031;-76
2022/03/05 03:07:32;;;;;;;22.88;6.15;;;-0.90;99.90;;;;;;5094586;28;20454;-74
2022/03/05 03:09:58;;;;;;;26.92;6.82;;;-0.90;99.90;;;;;;5094349;28;20390;-75
2022/03/05 03:12:26;;;;;;;22.75;5.93;;;-1.00;99.90;;;;;;5094965;28;20031;-74
2022/03/05 03:14:51;;;;;;;23.33;6.30;;;-1.00;99.90;;;;;;5092545;28;20032;-74
2022/03/05 03:17:17;;;;;;;18.92;5.50;;;-1.00;99.90;;;;;;5092828;28;20024;-75
2022/03/05 03:19:43;;;;;;;22.20;6.55;;;-1.00;99.90;;;;;;5094835;28;20503;-74
2022/03/05 03:22:09;;;;;;;19.40;5.88;;;-1.00;99.90;;;;;;5094248;28;20477;-74
2022/03/05 03:24:34;;;;;;;21.20;6.07;;;-1.00;99.90;;;;;;5094349;28;20024;-75
2022/03/05 03:27:00;;;;;;;26.27;6.20;;;-1.10;99.90;;;;;;5094125;28;20016;-74
2022/03/05 03:29:26;;;;;;;18.30;6.20;;;-1.10;99.90;;;;;;5094016;28;20370;-74
2022/03/05 03:31:51;;;;;;;18.60;6.25;;;-1.20;99.90;;;;;;5094307;28;20435;-74
2022/03/05 03:34:17;;;;;;;20.63;6.10;;;-1.20;99.90;;;;;;5092649;28;20054;-74
2022/03/05 03:36:42;;;;;;;19.55;6.25;;;-1.20;99.90;;;;;;5092501;28;20024;-74
2022/03/05 03:39:08;;;;;;;18.35;4.88;;;-1.30;99.90;;;;;;5094109;28;20047;-74
2022/03/05 03:41:33;;;;;;;21.15;5.97;;;-1.30;99.90;;;;;;5092594;28;20028;-74
2022/03/05 03:43:59;;;;;;;22.23;5.63;;;-1.40;99.90;;;;;;5093453;28;20431;-74
2022/03/05 03:46:25;;;;;;;22.70;5.57;;;-1.40;99.90;;;;;;5094154;28;20028;-73
2022/03/05 03:48:50;;;;;;;21.85;5.93;;;-1.40;99.90;;;;;;5093972;28;20020;-73
2022/03/05 03:51:16;;;;;;;19.02;5.57;;;-1.50;99.90;;;;;;5092392;28;20024;-73
2022/03/05 03:53:42;;;;;;;21.80;5.60;;;-1.50;99.90;;;;;;5093683;28;20081;-73
2022/03/05 03:56:07;;;;;;;25.30;5.68;;;-1.60;99.90;;;;;;5093523;28;20435;-73
2022/03/05 03:58:33;;;;;;;26.30;6.43;;;-1.50;99.90;;;;;;5093755;28;20481;-73
2022/03/05 04:00:58;;;;;;;26.42;6.63;;;-1.60;99.90;;;;;;5093786;28;20077;-74
2022/03/05 04:03:24;;;;;;;20.50;5.88;;;-1.60;99.90;;;;;;5093579;28;20031;-73
2022/03/05 04:05:49;;;;;;;24.67;6.30;;;-1.50;99.90;;;;;;5092076;28;20032;-73
2022/03/05 04:10:59;;;;;;;21.55;6.22;;;-1.50;99.90;;;;;;5094053;28;20073;-73
2022/03/05 04:13:24;;;;;;;19.73;5.97;;;-1.40;99.90;;;;;;5092069;28;20024;-73
2022/03/05 04:15:50;;;;;;;25.50;6.68;;;-1.40;99.90;;;;;;5091976;28;20120;-73
2022/03/05 04:18:16;;;;;;;24.48;7.10;;;-1.40;99.90;;;;;;5093077;28;20038;-73
2022/03/05 04:20:41;;;;;;;21.58;6.28;;;-1.30;99.90;;;;;;5093369;28;20020;-73
2022/03/05 04:23:07;;;;;;;24.45;6.25;;;-1.30;99.90;;;;;;5093334;28;20024;-73
2022/03/05 04:25:32;;;;;;;22.80;6.80;;;-1.30;99.90;;;;;;5093068;28;20028;-73
2022/03/05 04:27:58;;;;;;;20.13;6.30;;;-1.40;99.90;;;;;;5091929;28;20097;-72
2022/03/05 04:30:24;;;;;;;26.85;8.10;;;-1.40;99.90;;;;;;5093190;28;20469;-73
2022/03/05 04:32:49;;;;;;;24.88;7.00;;;-1.40;99.90;;;;;;5091935;28;20034;-74
2022/03/05 04:35:16;;;;;;;20.05;6.60;;;-1.30;99.90;;;;;;5093742;28;20115;-72
2022/03/05 04:37:42;;;;;;;22.42;5.75;;;-1.40;99.90;;;;;;5093417;28;20028;-72
2022/03/05 04:40:08;;;;;;;25.75;7.00;;;-1.40;99.90;;;;;;5095542;28;20097;-73
2022/03/05 04:42:34;;;;;;;23.15;6.47;;;-1.30;99.90;;;;;;5097152;28;20107;-73
2022/03/05 04:45:00;;;;;;;19.00;6.40;;;-1.40;99.90;;;;;;5097100;28;20206;-73
2022/03/05 04:47:25;;;;;;;23.92;6.55;;;-1.30;99.90;;;;;;5097009;28;20094;-72
2022/03/05 04:49:51;;;;;;;29.02;7.65;;;-1.30;99.90;;;;;;5096947;28;20034;-74
2022/03/05 04:52:16;;;;;;;27.90;6.82;;;-1.30;99.90;;;;;;5097016;28;20081;-72
2022/03/05 04:54:42;;;;;;;32.20;7.20;;;-1.40;99.90;;;;;;5096971;28;20032;-72
2022/03/05 04:57:08;;;;;;;31.35;6.97;;;-1.30;99.90;;;;;;5096897;28;20477;-74
2022/03/05 04:59:34;;;;;;;24.70;7.78;;;-1.40;99.90;;;;;;5096856;28;20024;-72
2022/03/05 05:02:00;;;;;;;29.25;7.47;;;-1.40;99.90;;;;;;5097199;28;20040;-72
2022/03/05 05:04:26;;;;;;;27.00;6.78;;;-1.40;99.90;;;;;;5096286;28;20035;-73
2022/03/05 05:06:51;;;;;;;22.73;6.35;;;-1.40;99.90;;;;;;5096764;28;20034;-74
2022/03/05 05:09:17;;;;;;;29.60;6.85;;;-1.40;99.90;;;;;;5095387;28;20516;-73
2022/03/05 05:11:42;;;;;;;21.58;6.10;;;-1.40;99.90;;;;;;5095315;28;20109;-74
2022/03/05 05:14:09;;;;;;;27.75;7.70;;;-1.40;99.90;;;;;;5096819;28;20107;-73
2022/03/05 05:16:34;;;;;;;26.45;8.48;;;-1.40;99.90;;;;;;5095264;28;20452;-74
2022/03/05 05:21:44;;;;;;;29.00;7.10;;;-1.40;99.90;;;;;;5096788;28;20082;-72
2022/03/05 05:24:09;;;;;;;26.73;6.70;;;-1.40;99.90;;;;;;5096375;28;20024;-73
2022/03/05 05:26:35;;;;;;;22.10;6.22;;;-1.50;99.90;;;;;;5096814;28;20085;-73
2022/03/05 05:29:00;;;;;;;29.55;7.85;;;-1.50;99.90;;;;;;5096578;28;20070;-73
2022/03/05 05:31:26;;;;;;;29.25;7.88;;;-1.50;99.90;;;;;;5096502;28;20111;-72
2022/03/05 05:33:52;;;;;;;30.02;8.40;;;-1.50;99.90;;;;;;5096011;28;20016;-72
2022/03/05 05:36:18;;;;;;;28.02;7.68;;;-1.50;99.90;;;;;;5096387;28;20357;-73
2022/03/05 05:38:44;;;;;;;24.85;6.78;;;-1.50;99.90;;;;;;5094920;28;20023;-72
2022/03/05 05:41:09;;;;;;;27.05;7.38;;;-1.50;99.90;;;;;;5094833;28;20027;-72
2022/03/05 05:43:35;;;;;;;29.60;7.72;;;-1.50;99.90;;;;;;5094864;28;20389;-74
2022/03/05 05:46:01;;;;;;;27.42;7.95;;;-1.60;99.90;;;;;;5094746;28;20026;-73
2022/03/05 05:48:27;;;;;;;27.42;7.90;;;-1.60;99.90;;;;;;5094445;28;20150;-73
2022/03/05 05:50:52;;;;;;;27.02;7.10;;;-1.60;99.90;;;;;;5094044;28;20027;-73
2022/03/05 05:53:18;;;;;;;27.90;7.75;;;-1.60;99.90;;;;;;5096394;28;20022;-73
2022/03/05 05:55:43;;;;;;;32.38;8.63;;;-1.60;99.90;;;;;;5095741;28;20052;-73
2022/03/05 05:58:09;;;;;;;27.05;7.18;;;-1.60;99.90;;;;;;5096381;28;20081;-73
2022/03/05 06:00:34;;;;;;;25.27;7.53;;;-1.70;99.90;;;;;;5094401;28;20027;-73
2022/03/05 06:03:00;;;;;;;30.10;8.25;;;-1.70;99.90;;;;;;5095683;28;20371;-73
2022/03/05 06:05:25;;;;;;;26.48;6.97;;;-1.70;99.90;;;;;;5095782;28;20046;-73
2022/03/05 06:07:51;;;;;;;31.50;8.20;;;-1.70;99.90;;;;;;5095741;28;20032;-73
2022/03/05 06:10:16;;;;;;;34.15;7.38;;;-1.70;99.90;;;;;;5096088;28;20024;-73
2022/03/05 06:12:44;;;;;;;32.03;8.60;;;-1.70;99.90;;;;;;5095487;28;20035;-73
2022/03/05 06:15:10;;;;;;;31.40;8.68;;;-1.70;99.90;;;;;;5094250;28;20023;-73
2022/03/05 06:17:36;;;;;;;27.48;7.68;;;-1.60;99.90;;;;;;5095377;28;20032;-75
2022/03/05 06:20:02;;;;;;;34.50;9.38;;;-1.70;99.90;;;;;;5095181;28;20024;-73
2022/03/05 06:22:27;;;;;;;27.83;7.18;;;-1.70;99.90;;;;;;5095364;28;20027;-73
2022/03/05 06:24:53;;;;;;;22.95;7.63;;;-1.70;99.90;;;;;;5093871;28;20032;-72
2022/03/05 06:27:18;;;;;;;29.83;6.75;;;-1.70;99.90;;;;;;5095388;28;20101;-74
2022/03/05 06:29:44;;;;;;;37.00;9.35;;;-1.70;99.90;;;;;;5093999;28;20162;-72
2022/03/05 06:32:10;;;;;;;31.65;8.52;;;-1.70;99.90;;;;;;5095430;28;20444;-73
2022/03/05 06:34:36;;;;;;;33.15;7.82;;;-1.70;99.90;;;;;;5094810;28;20427;-74
2022/03/05 06:37:01;;;;;;;34.47;8.80;;;-1.70;99.90;;;;;;5095254;28;20024;-73
2022/03/05 06:39:27;;;;;;;32.75;8.95;;;-1.70;99.90;;;;;;5094978;28;20478;-73
2022/03/05 06:41:53;;;;;;;30.52;7.93;;;-1.60;99.90;;;;;;5095134;28;20016;-73
2022/03/05 06:44:19;;;;;;;29.80;9.05;;;-1.70;99.90;;;;;;5093597;28;20048;-74
2022/03/05 06:46:44;;;;;;;34.22;7.50;;;-1.60;99.90;;;;;;5093301;28;20059;-72
2022/03/05 06:49:10;;;;;;;29.15;7.53;;;-1.60;99.90;;;;;;5093493;28;20047;-73
2022/03/05 06:51:35;;;;;;;33.70;9.35;;;-1.60;99.90;;;;;;5093332;28;20024;-72
2022/03/05 06:54:01;;;;;;;31.50;7.78;;;-1.50;99.90;;;;;;5095116;28;20036;-73
2022/03/05 06:56:26;;;;;;;30.83;7.50;;;-1.40;99.90;;;;;;5094172;28;20543;-73
2022/03/05 06:58:52;;;;;;;36.55;9.43;;;-1.40;99.90;;;;;;5094425;28;20058;-74
2022/03/05 07:01:18;;;;;;;29.40;8.23;;;-1.40;99.90;;;;;;5093992;28;20024;-73
2022/03/05 07:03:43;;;;;;;33.28;7.75;;;-1.30;99.90;;;;;;5094468;28;20024;-73
2022/03/05 07:06:09;;;;;;;31.33;9.20;;;-1.30;99.90;;;;;;5094354;28;20047;-73
2022/03/05 07:08:36;;;;;;;24.77;6.70;;;-0.70;99.90;;;;;;5093185;28;20024;-73
2022/03/05 07:11:02;;;;;;;26.80;7.90;;;-1.10;99.90;;;;;;5092850;28;20489;-74
2022/03/05 07:13:28;;;;;;;32.85;7.68;;;-1.00;99.90;;;;;;5092716;28;20016;-73
2022/03/05 07:15:53;;;;;;;30.45;7.53;;;-1.00;99.90;;;;;;5092797;28;20169;-73
2022/03/05 07:18:19;;;;;;;29.52;9.25;;;-0.80;99.90;;;;;;5092816;28;20142;-73
2022/03/05 07:20:44;;;;;;;28.90;8.23;;;-0.80;99.90;;;;;;5094190;28;20023;-73
2022/03/05 07:23:10;;;;;;;31.98;9.00;;;-0.70;99.90;;;;;;5092874;28;20027;-73
2022/03/05 07:25:39;;;;;;;31.13;9.00;;;-0.70;99.90;;;;;;5094036;28;20024;-73
2022/03/05 07:28:05;;;;;;;;;;;-0.60;99.90;;;;;;5094259;28;20024;-73
2022/03/05 07:30:31;;;;;;;30.17;8.18;;;-0.50;99.90;;;;;;5093981;28;19951;-73
2022/03/05 07:32:56;;;;;;;26.73;8.23;;;-0.40;99.90;;;;;;5092731;28;20012;-73
2022/03/05 07:35:22;;;;;;;27.83;7.38;;;-0.30;99.90;;;;;;5093355;28;20381;-73
2022/03/05 07:37:47;;;;;;;32.47;8.18;;;-0.20;99.90;;;;;;5092498;28;20489;-73
2022/03/05 07:40:13;;;;;;;28.95;7.57;;;-0.20;99.90;;;;;;5094066;28;20437;-73
2022/03/05 07:42:38;;;;;;;31.02;8.27;;;-0.10;99.90;;;;;;5093618;28;20473;-73
2022/03/05 07:45:05;;;;;;;26.30;8.27;;;0.00;99.90;;;;;;5093427;28;20028;-73
2022/03/05 07:47:30;;;;;;;32.80;8.38;;;0.10;99.90;;;;;;5093804;28;20069;-74
2022/03/05 07:49:56;;;;;;;31.35;6.93;;;0.10;99.90;;;;;;5094190;28;20020;-73
2022/03/05 07:52:21;;;;;;;24.67;6.95;;;0.20;99.90;;;;;;5092520;28;20015;-73
2022/03/05 07:54:47;;;;;;;24.33;7.55;;;0.30;99.90;;;;;;5093605;28;20566;-73
2022/03/05 07:57:12;;;;;;;32.92;8.43;;;0.40;99.90;;;;;;5093600;28;20016;-73
2022/03/05 07:59:38;;;;;;;31.45;8.73;;;0.50;99.90;;;;;;5093554;28;20013;-74
2022/03/05 08:02:04;;;;;;;30.92;8.15;;;0.60;99.90;;;;;;5092292;28;20023;-74
2022/03/05 08:04:29;;;;;;;35.65;9.60;;;0.70;99.90;;;;;;5092158;28;20027;-74
2022/03/05 08:06:55;;;;;;;37.45;9.52;;;0.80;99.90;;;;;;5092521;28;20028;-74
2022/03/05 08:09:21;;;;;;;29.73;8.25;;;0.90;99.90;;;;;;5093815;28;20027;-74
2022/03/05 08:11:46;;;;;;;33.47;9.45;;;1.00;99.90;;;;;;5093594;28;20023;-74
2022/03/05 08:14:12;;;;;;;29.13;8.63;;;1.00;99.90;;;;;;5093777;28;20024;-74
2022/03/05 08:16:37;;;;;;;34.90;9.68;;;1.20;99.90;;;;;;5093630;28;20093;-74
2022/03/05 08:19:03;;;;;;;32.33;8.23;;;1.30;99.90;;;;;;5091816;28;20042;-73
2022/03/05 08:21:29;;;;;;;33.33;8.00;;;1.30;99.90;;;;;;5092233;28;20024;-73
2022/03/05 08:23:56;;;;;;;27.35;8.55;;;1.40;99.90;;;;;;5094039;28;20077;-73
2022/03/05 08:26:21;;;;;;;33.35;8.25;;;1.50;99.90;;;;;;5093945;28;20050;-74
2022/03/05 08:28:47;;;;;;;33.30;9.48;;;1.60;99.90;;;;;;5092124;28;20477;-74
2022/03/05 08:31:13;;;;;;;33.20;9.88;;;1.60;99.90;;;;;;5092074;28;20051;-74
2022/03/05 08:33:39;;;;;;;34.42;8.75;;;1.80;99.90;;;;;;5093386;28;20095;-74
2022/03/05 08:36:06;;;;;;;27.42;8.30;;;1.90;99.90;;;;;;5093487;28;20103;-74
2022/03/05 08:38:33;;;;;;;34.45;8.75;;;1.90;99.90;;;;;;5093266;28;20063;-79
2022/03/05 08:40:59;;;;;;;34.55;9.38;;;2.10;99.90;;;;;;5093398;28;20021;-74
2022/03/05 08:43:25;;;;;;;31.90;10.45;;;2.20;99.90;;;;;;5093337;28;20024;-74
2022/03/05 08:45:51;;;;;;;34.22;8.80;;;2.30;99.90;;;;;;5092993;28;20070;-74
2022/03/05 08:48:17;;;;;;;30.77;8.48;;;2.40;99.90;;;;;;5091862;28;20027;-74
2022/03/05 08:50:42;;;;;;;30.40;9.20;;;2.40;99.90;;;;;;5093627;28;20073;-74
2022/03/05 08:53:08;;;;;;;26.45;8.68;;;2.50;99.90;;;;;;5093030;28;20024;-74
2022/03/05 08:55:33;;;;;;;32.85;9.07;;;2.50;99.90;;;;;;5092972;28;20024;-74
2022/03/05 08:57:59;;;;;;;34.47;9.18;;;2.60;99.90;;;;;;5093017;28;20115;-74
2022/03/05 09:00:25;;;;;;;38.30;9.35;;;2.70;99.90;;;;;;5092843;28;20024;-74
2022/03/05 09:02:51;;;;;;;31.02;9.48;;;2.80;99.90;;;;;;5092908;28;20499;-74
2022/03/05 09:05:17;;;;;;;32.97;9.02;;;2.90;99.90;;;;;;5092813;28;20024;-74
2022/03/05 09:07:43;;;;;;;36.33;10.82;;;3.00;99.90;;;;;;5092799;28;20028;-74
2022/03/05 09:10:09;;;;;;;35.45;10.10;;;3.00;99.90;;;;;;5092830;28;20115;-74
2022/03/05 09:12:35;;;;;;;42.22;10.40;;;3.10;99.90;;;;;;5092946;28;20020;-74
2022/03/05 09:15:00;;;;;;;34.10;9.73;;;3.20;99.90;;;;;;5091328;28;20019;-74
2022/03/05 09:17:26;;;;;;;36.42;10.45;;;3.30;99.90;;;;;;5092553;28;20071;-75
2022/03/05 09:19:53;;;;;;;30.92;10.32;;;3.40;99.90;;;;;;5091836;28;20048;-75
2022/03/05 09:22:19;;;;;;;30.23;10.32;;;3.50;99.90;;;;;;5093028;28;20040;-76
2022/03/05 09:24:45;;;;;;;33.35;10.18;;;3.50;99.90;;;;;;5092904;28;20031;-75
2022/03/05 09:27:11;;;;;;;29.63;9.45;;;3.60;99.90;;;;;;5095035;28;20043;-74
2022/03/05 09:29:36;;;;;;;39.00;10.77;;;3.70;99.90;;;;;;5096208;28;20080;-74
2022/03/05 09:32:03;;;;;;;34.88;10.00;;;3.80;99.90;;;;;;5095086;28;20020;-75
2022/03/05 09:34:29;;;;;;;31.25;9.65;;;3.90;99.90;;;;;;5095009;28;20116;-75
2022/03/05 09:36:54;;;;;;;32.97;9.27;;;4.00;99.90;;;;;;5096155;28;20462;-75
2022/03/05 09:39:20;;;;;;;35.38;10.00;;;4.00;99.90;;;;;;5095743;28;20392;-75
2022/03/05 09:41:46;;;;;;;36.92;10.70;;;4.10;99.90;;;;;;5095808;28;20382;-75
2022/03/05 09:44:11;;;;;;;30.95;9.93;;;4.20;99.90;;;;;;5095637;28;20028;-74
2022/03/05 09:46:38;;;;;;;27.08;9.48;;;4.30;99.90;;;;;;5095822;28;20032;-75
2022/03/05 09:49:04;;;;;;;32.33;10.35;;;4.40;99.90;;;;;;5096014;28;20024;-75
2022/03/05 09:51:31;;;;;;;30.40;10.23;;;4.50;99.90;;;;;;5096204;28;20112;-75
2022/03/05 09:53:57;;;;;;;33.53;9.60;;;4.70;99.90;;;;;;5094619;28;20016;-75
2022/03/05 09:56:23;;;;;;;32.92;8.80;;;4.80;99.90;;;;;;5094804;28;20077;-75
2022/03/05 09:58:50;;;;;;;38.13;11.05;;;5.00;99.90;;;;;;5094418;28;20058;-75
2022/03/05 10:01:17;;;;;;;35.10;9.95;;;5.00;99.90;;;;;;5095553;28;20024;-74
2022/03/05 10:03:48;;;;;;;38.83;11.75;;;5.10;99.90;;;;;;5095387;28;20431;-75
2022/03/05 10:06:27;;;;;;;31.73;10.65;;;5.20;99.90;;;;;;5094312;28;20016;-75
2022/03/05 10:08:55;;;;;;;30.63;9.88;;;5.20;99.90;;;;;;5094387;28;20502;-75
2022/03/05 10:11:21;;;;;;;30.67;9.50;;;5.20;99.90;;;;;;5096026;28;20023;-75
2022/03/05 10:13:48;;;;;;;30.85;9.82;;;5.20;99.90;;;;;;5095819;28;20457;-75
2022/03/05 10:16:33;;;;;;;26.10;9.80;;;5.40;99.90;;;;;;5094244;28;20020;-76
2022/03/05 10:19:22;;;;;;;34.28;10.98;;;5.50;99.90;;;;;;5095451;28;20032;-75
2022/03/05 10:22:04;;;;;;;35.88;10.73;;;5.60;99.90;;;;;;5095816;28;20448;-75
2022/03/05 10:24:36;;;;;;;36.47;10.13;;;5.70;99.90;;;;;;5095491;28;20481;-76
2022/03/05 10:27:03;;;;;;;35.15;10.63;;;5.80;99.50;;;;;;5094196;28;20110;-78
2022/03/05 10:29:34;;;;;;;32.03;11.35;;;5.90;99.90;;;;;;5096281;28;20436;-76
2022/03/05 10:32:06;;;;;;;29.30;9.50;;;5.90;99.10;;;;;;5093992;28;20020;-76
2022/03/05 10:34:51;;;;;;;34.85;10.48;;;6.00;98.70;;;;;;5095061;28;20022;-76
2022/03/05 10:37:18;;;;;;;31.92;10.93;;;6.10;98.30;;;;;;5093496;28;20050;-76
2022/03/05 10:39:46;;;;;;;35.08;11.00;;;6.20;98.10;;;;;;5094301;28;20469;-76
2022/03/05 10:42:29;;;;;;;37.80;11.33;;;6.40;98.70;;;;;;5093589;28;20420;-76
2022/03/05 10:45:01;;;;;;;32.10;11.10;;;6.40;96.00;;;;;;5094787;28;20267;-76
2022/03/05 10:47:43;;;;;;;29.02;9.50;;;6.60;97.10;;;;;;5094973;28;20020;-76
2022/03/05 10:50:15;;;;;;;33.92;10.70;;;6.80;96.30;;;;;;5093806;28;20061;-76
2022/03/05 10:52:51;;;;;;;30.92;10.00;;;6.90;95.20;;;;;;5093406;28;20381;-76
2022/03/05 10:55:23;;;;;;;33.28;10.40;;;7.00;93.20;;;;;;5094708;28;20051;-76
2022/03/05 10:58:13;;;;;;;35.90;11.07;;;7.00;91.60;;;;;;5095247;28;20020;-76
2022/03/05 11:00:40;;;;;;;28.45;9.68;;;7.10;91.80;;;;;;5094788;28;20051;-76
2022/03/05 11:03:07;;;;;;;35.90;11.52;;;7.20;91.00;;;;;;5094664;28;20026;-76
2022/03/05 11:05:34;;;;;;;31.55;11.95;;;7.30;90.10;;;;;;5094421;28;20110;-76
2022/03/05 11:08:00;;;;;;;32.33;9.85;;;7.30;88.70;;;;;;5095713;28;20064;-77
2022/03/05 11:10:35;;;;;;;36.33;10.98;;;7.50;91.00;;;;;;5094381;28;20035;-77
2022/03/05 11:13:03;;;;;;;29.75;10.57;;;7.60;88.70;;;;;;5093201;28;20477;-76
2022/03/05 11:15:30;;;;;;;35.75;11.25;;;7.70;87.10;;;;;;5093184;28;20016;-76
2022/03/05 11:17:58;;;;;;;31.38;11.25;;;7.80;85.80;;;;;;5094149;28;20093;-76
2022/03/05 11:20:24;;;;;;;35.53;11.48;;;7.90;81.80;;;;;;5094791;28;20024;-76
2022/03/05 11:22:50;;;;;;;32.47;10.18;;;7.90;84.80;;;;;;5093180;28;20030;-76
2022/03/05 11:25:19;;;;;;;28.23;9.73;;;8.00;83.80;;;;;;5092206;28;20166;-78
2022/03/05 11:27:50;;;;;;;;;;;8.10;85.10;;;;;;5094524;28;20023;-76
2022/03/05 11:30:17;;;;;;;32.42;9.90;;;8.30;83.00;;;;;;5094246;28;19904;-76
2022/03/05 11:32:43;;;;;;;35.38;10.82;;;8.50;84.10;;;;;;5094283;28;20039;-76
2022/03/05 11:35:22;;;;;;;31.67;10.13;;;8.60;82.00;;;;;;5093738;28;20481;-76
2022/03/05 11:37:50;;;;;;;32.58;10.95;;;8.70;79.80;;;;;;5092573;28;20482;-76
2022/03/05 11:40:40;;;;;;;31.00;11.07;;;8.80;79.80;;;;;;5092784;28;20024;-76
2022/03/05 11:43:20;;;;;;;34.45;12.20;;;8.90;78.10;;;;;;5092621;28;20470;-76
2022/03/05 11:46:02;;;;;;;33.88;11.27;;;9.00;77.80;;;;;;5093930;28;20028;-75
2022/03/05 11:48:30;;;;;;;35.55;11.98;;;9.10;77.50;;;;;;5093716;28;20034;-75
2022/03/05 11:51:00;;;;;;;35.63;12.32;;;9.10;76.40;;;;;;5092566;28;20080;-75
2022/03/05 11:53:26;;;;;;;33.85;9.60;;;9.20;76.40;;;;;;5094638;28;20012;-76
2022/03/05 11:55:52;;;;;;;32.28;10.15;;;9.30;74.40;;;;;;5093833;28;20050;-74
2022/03/05 11:58:32;;;;;;;31.73;11.25;;;9.50;76.60;;;;;;5093813;28;20020;-77
2022/03/05 12:00:58;;;;;;;30.30;11.18;;;9.60;74.80;;;;;;5094220;28;20500;-77
2022/03/05 12:03:47;;;;;;;38.08;12.57;;;9.70;71.90;;;;;;5093339;28;20077;-76
2022/03/05 12:06:13;;;;;;;;;;;9.80;71.00;;;;;;5094370;28;20118;-76
2022/03/05 12:08:38;;;;;;;32.50;10.43;;;10.00;72.20;;;;;;5093659;28;19911;-75
2022/03/05 12:11:08;;;;;;;30.13;10.38;;;10.20;72.10;;;;;;5093527;28;20020;-75
2022/03/05 12:13:42;;;;;;;32.83;9.77;;;10.30;71.90;;;;;;5093778;28;20043;-75
2022/03/05 12:16:23;;;;;;;32.50;11.10;;;10.60;67.80;;;;;;5094149;28;20076;-77
2022/03/05 12:18:49;;;;;;;29.65;10.63;;;10.50;67.10;;;;;;5093686;28;20054;-77
2022/03/05 12:21:32;;;;;;;30.77;10.80;;;10.60;65.80;;;;;;5094253;28;20020;-77
2022/03/05 12:24:05;;;;;;;26.75;9.75;;;10.90;68.30;;;;;;5095249;28;20034;-77
2022/03/05 12:26:43;;;;;;;29.08;11.15;;;11.10;62.90;;;;;;5092567;28;20032;-76
2022/03/05 12:29:10;;;;;;;27.80;9.77;;;11.30;64.80;;;;;;5094953;28;20099;-76
2022/03/05 12:31:41;;;;;;;31.25;11.32;;;11.60;64.10;;;;;;5095545;28;20503;-77
2022/03/05 12:34:06;;;;;;;31.25;11.05;;;11.70;62.50;;;;;;5095275;28;20389;-78
2022/03/05 12:36:32;;;;;;;28.13;10.43;;;11.90;62.00;;;;;;5094355;28;20016;-74
2022/03/05 12:38:59;;;;;;;29.85;10.98;;;12.10;58.90;;;;;;5093755;28;20032;-74
2022/03/05 12:41:27;;;;;;;27.42;10.00;;;11.90;59.50;;;;;;5093024;28;20059;-74
2022/03/05 12:43:55;;;;;;;28.88;10.27;;;12.10;59.40;;;;;;5093714;28;20161;-75
2022/03/05 12:46:21;;;;;;;29.55;10.88;;;12.10;58.50;;;;;;5091927;28;20471;-76